Time;durP1;ratioP1;P1;durP2;ratioP2;P2;SDS_P1;SDS_P2;PMS_P1;PMS_P2;Temp;Humidity;BMP_temperature;BMP_pressure;BME280_temperature;BME280_humidity;BME280_pressure;Samples;Min_cycle;Max_cycle;Signal;HPM_P1;HPM_P2
2022/07/11 00:02:08;;;;;;;4.82;1.00;;;16.40;99.90;;;;;;5031384;28;20057;-69
2022/07/11 00:04:35;;;;;;;4.72;1.25;;;16.50;99.90;;;;;;5031368;28;20053;-69
2022/07/11 00:07:01;;;;;;;3.17;1.02;;;16.50;99.90;;;;;;5026368;28;20082;-69
2022/07/11 00:09:27;;;;;;;5.95;1.23;;;16.50;99.90;;;;;;5032706;28;20030;-69
2022/07/11 00:11:53;;;;;;;5.20;1.05;;;16.60;99.90;;;;;;5031408;28;20045;-67
2022/07/11 00:14:19;;;;;;;6.10;0.90;;;16.60;99.90;;;;;;5028769;28;20037;-69
2022/07/11 00:16:45;;;;;;;3.78;0.98;;;16.60;99.90;;;;;;5037964;28;20030;-68
2022/07/11 00:19:11;;;;;;;3.35;1.00;;;16.70;99.90;;;;;;5036700;28;20041;-69
2022/07/11 00:21:36;;;;;;;2.88;0.85;;;16.70;99.90;;;;;;5033699;28;20083;-70
2022/07/11 00:24:07;;;;;;;9.00;1.05;;;16.80;99.90;;;;;;5028345;28;20211;-68
2022/07/11 00:26:33;;;;;;;;;;;16.80;99.90;;;;;;5031066;28;20037;-69
2022/07/11 00:28:58;;;;;;;4.20;0.77;;;16.80;99.90;;;;;;5029061;28;19913;-70
2022/07/11 00:31:24;;;;;;;9.73;1.25;;;16.90;99.90;;;;;;5030410;28;20040;-69
2022/07/11 00:33:50;;;;;;;7.00;1.10;;;16.90;99.90;;;;;;5029881;28;20026;-69
2022/07/11 00:36:15;;;;;;;2.53;0.68;;;16.90;99.90;;;;;;5029503;28;20386;-68
2022/07/11 00:38:41;;;;;;;2.90;0.57;;;16.90;99.90;;;;;;5029229;28;20034;-69
2022/07/11 00:41:06;;;;;;;2.50;0.63;;;16.90;99.90;;;;;;5028213;28;20383;-70
2022/07/11 00:43:34;;;;;;;1.17;0.55;;;17.00;99.90;;;;;;5028088;28;20191;-69
2022/07/11 00:46:00;;;;;;;4.43;0.95;;;17.00;99.90;;;;;;5028895;28;20055;-70
2022/07/11 00:48:26;;;;;;;1.52;0.65;;;17.00;99.90;;;;;;5029073;28;20059;-69
2022/07/11 00:50:53;;;;;;;2.95;0.63;;;17.10;99.90;;;;;;5030087;28;20115;-68
2022/07/11 00:53:20;;;;;;;2.53;0.70;;;17.00;99.90;;;;;;5030296;28;20033;-69
2022/07/11 00:55:48;;;;;;;3.45;0.55;;;17.00;99.90;;;;;;5030359;28;20042;-69
2022/07/11 00:58:13;;;;;;;2.30;0.60;;;17.10;99.90;;;;;;5038356;28;20055;-69
2022/07/11 01:00:40;;;;;;;4.88;0.80;;;17.10;99.90;;;;;;5040357;28;20029;-68
2022/07/11 01:03:06;;;;;;;3.92;0.65;;;17.10;99.90;;;;;;5036738;28;20069;-69
2022/07/11 01:05:32;;;;;;;2.85;0.50;;;17.10;99.90;;;;;;5031182;28;20029;-68
2022/07/11 01:07:58;;;;;;;2.17;0.60;;;17.10;99.90;;;;;;5029300;28;20033;-69
2022/07/11 01:10:24;;;;;;;1.40;0.47;;;17.10;99.90;;;;;;5033261;28;20021;-69
2022/07/11 01:12:50;;;;;;;2.72;0.50;;;17.10;99.90;;;;;;5027764;28;20034;-69
2022/07/11 01:15:16;;;;;;;4.70;0.60;;;17.10;99.90;;;;;;5028318;28;20045;-69
2022/07/11 01:17:42;;;;;;;2.78;0.68;;;17.10;99.90;;;;;;5030324;28;20034;-69
2022/07/11 01:20:09;;;;;;;4.53;0.95;;;17.10;99.90;;;;;;5032909;28;20040;-69
2022/07/11 01:22:50;;;;;;;4.63;1.30;;;17.10;99.90;;;;;;5032490;28;20030;-67
2022/07/11 01:25:30;;;;;;;3.28;0.50;;;17.10;99.90;;;;;;5027399;28;20029;-69
2022/07/11 01:27:59;;;;;;;1.23;0.40;;;17.10;99.90;;;;;;5024953;28;20449;-67
2022/07/11 01:30:26;;;;;;;3.15;0.30;;;17.20;99.90;;;;;;5027741;28;20120;-68
2022/07/11 01:32:55;;;;;;;2.15;0.60;;;17.10;99.90;;;;;;5029086;28;20538;-68
2022/07/11 01:35:22;;;;;;;7.18;0.50;;;17.10;99.90;;;;;;5029221;28;20034;-69
2022/07/11 01:37:48;;;;;;;3.35;0.52;;;17.20;99.90;;;;;;5029439;28;20099;-68
2022/07/11 01:40:14;;;;;;;4.90;0.80;;;17.10;99.90;;;;;;5025224;28;20116;-69
2022/07/11 01:42:40;;;;;;;0.57;0.20;;;17.10;99.90;;;;;;5031474;28;20060;-69
2022/07/11 01:45:07;;;;;;;2.83;0.40;;;17.10;99.90;;;;;;5037777;28;20034;-69
2022/07/11 01:47:33;;;;;;;2.85;0.40;;;17.10;99.90;;;;;;5037784;28;20038;-69
2022/07/11 01:49:59;;;;;;;1.30;0.50;;;17.10;99.90;;;;;;5032832;28;20032;-69
2022/07/11 01:52:24;;;;;;;1.63;0.50;;;17.10;99.90;;;;;;5029634;28;20030;-69
2022/07/11 01:54:50;;;;;;;3.40;0.75;;;17.10;99.90;;;;;;5031082;28;20029;-69
2022/07/11 01:57:15;;;;;;;0.95;0.38;;;17.10;99.90;;;;;;5032482;28;20029;-69
2022/07/11 01:59:41;;;;;;;1.92;0.45;;;17.10;99.90;;;;;;5032038;28;20042;-69
2022/07/11 02:02:07;;;;;;;1.30;0.20;;;17.00;99.90;;;;;;5032172;28;20045;-69
2022/07/11 02:04:36;;;;;;;3.75;0.90;;;17.00;99.90;;;;;;5033401;28;20041;-68
2022/07/11 02:07:01;;;;;;;3.38;0.45;;;17.00;99.90;;;;;;5031855;28;20033;-69
2022/07/11 02:09:27;;;;;;;6.07;0.50;;;17.00;99.90;;;;;;5037121;28;20069;-69
2022/07/11 02:11:52;;;;;;;2.40;0.40;;;17.00;99.90;;;;;;5033285;28;20037;-68
2022/07/11 02:14:18;;;;;;;2.28;0.30;;;17.00;99.90;;;;;;5036337;28;20038;-69
2022/07/11 02:16:43;;;;;;;1.42;0.30;;;17.00;99.90;;;;;;5039794;28;20033;-69
2022/07/11 02:19:10;;;;;;;1.67;0.20;;;17.00;99.90;;;;;;5033624;28;20033;-69
2022/07/11 02:21:36;;;;;;;2.72;0.63;;;17.00;99.90;;;;;;5033425;28;20034;-69
2022/07/11 02:24:03;;;;;;;1.52;0.20;;;17.00;99.90;;;;;;5031738;28;20037;-69
2022/07/11 02:26:28;;;;;;;2.70;0.52;;;17.00;99.90;;;;;;5032376;28;20057;-69
2022/07/11 02:28:54;;;;;;;2.05;0.68;;;17.00;99.90;;;;;;5032230;28;20233;-69
2022/07/11 02:31:20;;;;;;;4.38;0.85;;;17.00;99.90;;;;;;5032175;28;20120;-68
2022/07/11 02:33:45;;;;;;;3.45;0.95;;;17.00;99.90;;;;;;5031054;28;20025;-69
2022/07/11 02:36:11;;;;;;;1.55;0.47;;;17.00;99.90;;;;;;5029975;28;20033;-68
2022/07/11 02:38:37;;;;;;;4.43;0.40;;;17.00;99.90;;;;;;5032868;28;20044;-69
2022/07/11 02:41:03;;;;;;;2.08;0.63;;;17.00;99.90;;;;;;5031613;28;20040;-69
2022/07/11 02:43:29;;;;;;;2.63;0.75;;;17.00;99.90;;;;;;5030848;28;20030;-69
2022/07/11 02:45:55;;;;;;;1.23;0.40;;;17.00;99.90;;;;;;5030063;28;20033;-69
2022/07/11 02:48:21;;;;;;;2.33;0.20;;;17.00;99.90;;;;;;5032414;28;20041;-70
2022/07/11 02:50:47;;;;;;;3.00;0.47;;;17.00;99.90;;;;;;5030961;28;20037;-67
2022/07/11 02:53:12;;;;;;;0.93;0.40;;;17.00;99.90;;;;;;5030501;28;20025;-68
2022/07/11 02:55:38;;;;;;;2.20;0.57;;;17.00;99.90;;;;;;5040935;28;20039;-70
2022/07/11 02:58:04;;;;;;;2.42;0.65;;;17.00;99.90;;;;;;5041838;28;20565;-70
2022/07/11 03:00:30;;;;;;;2.10;0.65;;;17.00;99.90;;;;;;5041896;28;20030;-68
2022/07/11 03:02:55;;;;;;;2.47;0.98;;;17.00;99.90;;;;;;5035461;28;20029;-69
2022/07/11 03:05:22;;;;;;;1.63;0.57;;;16.90;99.90;;;;;;5032903;28;20477;-69
2022/07/11 03:07:47;;;;;;;0.30;0.30;;;17.00;99.90;;;;;;5032404;28;20537;-69
2022/07/11 03:10:13;;;;;;;3.38;0.55;;;17.00;99.90;;;;;;5042312;28;20095;-68
2022/07/11 03:12:39;;;;;;;0.95;0.43;;;17.00;99.90;;;;;;5039968;28;20026;-70
2022/07/11 03:15:06;;;;;;;2.03;0.60;;;17.00;99.90;;;;;;5038039;28;20028;-69
2022/07/11 03:17:31;;;;;;;0.90;0.50;;;17.00;99.90;;;;;;5032313;28;20041;-69
2022/07/11 03:19:57;;;;;;;2.58;0.70;;;17.00;99.90;;;;;;5031787;28;20043;-69
2022/07/11 03:22:23;;;;;;;1.58;0.40;;;17.00;99.90;;;;;;5032281;28;20034;-68
2022/07/11 03:24:50;;;;;;;4.03;0.60;;;17.00;99.90;;;;;;5030481;28;20126;-69
2022/07/11 03:27:16;;;;;;;2.83;0.47;;;17.00;99.90;;;;;;5030515;28;20030;-69
2022/07/11 03:29:42;;;;;;;5.32;1.48;;;17.00;99.90;;;;;;5034629;28;20048;-69
2022/07/11 03:32:10;;;;;;;5.28;1.05;;;17.00;99.90;;;;;;5040794;28;20137;-68
2022/07/11 03:34:36;;;;;;;4.70;0.73;;;17.00;99.90;;;;;;5041144;28;20040;-68
2022/07/11 03:37:02;;;;;;;4.35;0.60;;;17.00;99.90;;;;;;5031821;28;20060;-69
2022/07/11 03:39:28;;;;;;;4.18;0.60;;;17.00;99.90;;;;;;5031949;28;20038;-69
2022/07/11 03:41:54;;;;;;;2.63;0.60;;;17.00;99.90;;;;;;5030134;28;20060;-69
2022/07/11 03:44:24;;;;;;;5.55;0.60;;;17.00;99.90;;;;;;5030795;28;20025;-69
2022/07/11 03:46:49;;;;;;;3.17;0.65;;;17.00;99.90;;;;;;5031637;28;20060;-69
2022/07/11 03:49:15;;;;;;;0.73;0.50;;;17.00;99.90;;;;;;5029829;28;20409;-67
2022/07/11 03:51:41;;;;;;;3.00;1.23;;;17.00;99.90;;;;;;5031635;28;20494;-70
2022/07/11 03:54:06;;;;;;;3.80;0.60;;;17.00;99.90;;;;;;5030375;28;20079;-68
2022/07/11 03:56:32;;;;;;;2.25;1.05;;;17.00;99.90;;;;;;5031454;28;20405;-68
2022/07/11 03:58:57;;;;;;;5.85;1.10;;;17.00;99.90;;;;;;5029853;28;20037;-69
2022/07/11 04:01:23;;;;;;;2.80;0.93;;;17.00;99.90;;;;;;5031846;28;20112;-69
2022/07/11 04:03:49;;;;;;;4.47;1.02;;;17.00;99.90;;;;;;5034831;28;20030;-71
2022/07/11 04:06:15;;;;;;;6.03;1.88;;;17.00;99.90;;;;;;5032336;28;20052;-69
2022/07/11 04:08:41;;;;;;;3.67;1.40;;;16.90;99.90;;;;;;5030483;28;20029;-69
2022/07/11 04:11:07;;;;;;;4.20;1.33;;;17.00;99.90;;;;;;5029247;28;20037;-68
2022/07/11 04:13:33;;;;;;;3.70;1.30;;;16.90;99.90;;;;;;5030967;28;20490;-69
2022/07/11 04:15:58;;;;;;;2.72;1.25;;;17.00;99.90;;;;;;5030400;28;20044;-70
2022/07/11 04:18:24;;;;;;;8.02;1.85;;;17.00;99.90;;;;;;5031086;28;20044;-69
2022/07/11 04:20:49;;;;;;;6.05;1.92;;;16.90;99.90;;;;;;5030348;28;20041;-69
2022/07/11 04:23:16;;;;;;;5.63;2.08;;;16.90;99.90;;;;;;5030821;28;20045;-69
2022/07/11 04:25:42;;;;;;;5.28;1.98;;;16.90;99.90;;;;;;5029703;28;20029;-69
2022/07/11 04:28:07;;;;;;;4.18;1.73;;;16.90;99.90;;;;;;5030437;28;20104;-68
2022/07/11 04:30:33;;;;;;;5.22;1.80;;;16.90;99.90;;;;;;5042217;28;20029;-68
2022/07/11 04:32:59;;;;;;;8.27;1.63;;;16.90;99.90;;;;;;5039583;28;20087;-69
2022/07/11 04:35:27;;;;;;;4.82;1.90;;;16.90;99.90;;;;;;5038850;28;20055;-69
2022/07/11 04:37:53;;;;;;;7.25;2.03;;;16.90;99.90;;;;;;5037228;28;20030;-68
2022/07/11 04:40:20;;;;;;;4.47;1.73;;;16.90;99.90;;;;;;5036177;28;20026;-68
2022/07/11 04:42:46;;;;;;;4.88;1.92;;;16.90;99.90;;;;;;5035239;28;20513;-69
2022/07/11 04:45:11;;;;;;;7.28;2.55;;;16.90;99.90;;;;;;5037836;28;20030;-70
2022/07/11 04:47:37;;;;;;;4.40;2.25;;;16.90;99.90;;;;;;5040409;28;20113;-69
2022/07/11 04:50:03;;;;;;;8.45;2.85;;;16.90;99.90;;;;;;5035248;28;20251;-67
2022/07/11 04:52:28;;;;;;;10.73;2.40;;;16.90;99.90;;;;;;5030967;28;20026;-69
2022/07/11 04:54:54;;;;;;;6.03;2.00;;;16.90;99.90;;;;;;5031195;28;20401;-69
2022/07/11 04:57:20;;;;;;;6.40;1.85;;;16.90;99.90;;;;;;5030412;28;20038;-69
2022/07/11 04:59:46;;;;;;;4.30;1.85;;;16.90;99.90;;;;;;5023335;28;20044;-70
2022/07/11 05:02:11;;;;;;;8.27;2.17;;;16.90;99.90;;;;;;5029343;28;20127;-70
2022/07/11 05:04:37;;;;;;;5.57;2.20;;;16.90;99.90;;;;;;5021931;28;20136;-69
2022/07/11 05:07:03;;;;;;;5.47;2.28;;;16.90;99.90;;;;;;5027215;28;20367;-71
2022/07/11 05:09:28;;;;;;;7.35;2.42;;;17.00;99.90;;;;;;5029089;28;20041;-70
2022/07/11 05:11:54;;;;;;;5.07;2.35;;;16.90;99.90;;;;;;5024765;28;20045;-69
2022/07/11 05:14:20;;;;;;;5.32;2.40;;;16.90;99.90;;;;;;5026156;28;20041;-70
2022/07/11 05:16:45;;;;;;;7.25;2.78;;;16.90;99.90;;;;;;5029560;28;20037;-70
2022/07/11 05:19:11;;;;;;;8.00;2.67;;;16.90;99.90;;;;;;5024918;28;20061;-69
2022/07/11 05:21:37;;;;;;;10.80;2.97;;;16.80;99.90;;;;;;5030265;28;20417;-70
2022/07/11 05:24:03;;;;;;;6.85;3.42;;;16.80;99.90;;;;;;5025870;28;20034;-71
2022/07/11 05:26:28;;;;;;;6.22;2.83;;;16.80;99.90;;;;;;5029389;28;20060;-70
2022/07/11 05:28:54;;;;;;;5.65;2.38;;;16.90;99.90;;;;;;5028402;28;20041;-68
2022/07/11 05:31:20;;;;;;;6.18;2.30;;;16.90;99.90;;;;;;5033626;28;20607;-70
2022/07/11 05:33:46;;;;;;;4.70;2.45;;;16.90;99.90;;;;;;5030115;28;20089;-70
2022/07/11 05:36:12;;;;;;;8.18;2.60;;;16.90;99.90;;;;;;5028359;28;20034;-70
2022/07/11 05:38:38;;;;;;;6.70;2.67;;;16.90;99.90;;;;;;5032614;28;20037;-69
2022/07/11 05:41:04;;;;;;;5.47;2.80;;;16.90;99.90;;;;;;5028251;28;20130;-68
2022/07/11 05:43:29;;;;;;;6.10;2.20;;;16.90;99.90;;;;;;5032487;28;20026;-70
2022/07/11 05:45:55;;;;;;;8.05;2.97;;;16.90;99.90;;;;;;5029998;28;20052;-71
2022/07/11 05:48:20;;;;;;;7.10;2.70;;;17.00;99.90;;;;;;5033887;28;20038;-70
2022/07/11 05:50:46;;;;;;;5.85;2.60;;;17.00;99.90;;;;;;5029718;28;20513;-70
2022/07/11 05:53:13;;;;;;;6.72;2.53;;;17.00;99.90;;;;;;5030413;28;20041;-70
2022/07/11 05:55:38;;;;;;;6.72;2.75;;;17.00;99.90;;;;;;5037286;28;20033;-69
2022/07/11 05:58:04;;;;;;;7.95;3.28;;;17.10;99.90;;;;;;5038278;28;20053;-69
2022/07/11 06:00:30;;;;;;;10.23;2.30;;;17.10;99.90;;;;;;5039433;28;20063;-69
2022/07/11 06:02:55;;;;;;;9.00;2.60;;;17.10;99.90;;;;;;5039496;28;20532;-70
2022/07/11 06:05:21;;;;;;;5.18;2.05;;;17.20;99.90;;;;;;5040414;28;20041;-69
2022/07/11 06:10:32;;;;;;;2.90;1.50;;;17.20;99.90;;;;;;5034488;28;20035;-71
2022/07/11 06:12:57;;;;;;;6.10;2.25;;;17.20;99.90;;;;;;5032514;28;20018;-70
2022/07/11 06:15:23;;;;;;;5.45;2.47;;;17.30;99.90;;;;;;5031901;28;20095;-69
2022/07/11 06:17:49;;;;;;;7.88;1.70;;;17.30;99.90;;;;;;5032168;28;20025;-71
2022/07/11 06:20:15;;;;;;;3.42;1.52;;;17.30;99.90;;;;;;5031882;28;20040;-73
2022/07/11 06:22:40;;;;;;;4.25;1.35;;;17.40;99.90;;;;;;5032253;28;20025;-70
2022/07/11 06:25:07;;;;;;;4.43;1.20;;;17.40;99.90;;;;;;5037272;28;20029;-71
2022/07/11 06:27:32;;;;;;;4.07;1.52;;;17.40;99.90;;;;;;5035920;28;20032;-71
2022/07/11 06:29:58;;;;;;;2.22;0.95;;;17.40;99.90;;;;;;5031498;28;20041;-71
2022/07/11 06:32:23;;;;;;;3.08;1.10;;;17.40;99.90;;;;;;5032320;28;20026;-70
2022/07/11 06:34:50;;;;;;;5.90;1.02;;;17.40;99.90;;;;;;5038628;28;20041;-72
2022/07/11 06:37:15;;;;;;;1.75;0.70;;;17.50;99.90;;;;;;5032678;28;20072;-71
2022/07/11 06:39:41;;;;;;;1.98;1.05;;;17.50;99.90;;;;;;5033427;28;20034;-70
2022/07/11 06:42:06;;;;;;;8.48;1.40;;;17.50;99.90;;;;;;5030653;28;20025;-71
2022/07/11 06:44:32;;;;;;;4.78;1.40;;;17.50;99.90;;;;;;5032460;28;20217;-71
2022/07/11 06:46:58;;;;;;;3.47;1.00;;;17.60;99.90;;;;;;5033291;28;20037;-71
2022/07/11 06:49:24;;;;;;;3.42;0.80;;;17.60;99.90;;;;;;5037322;28;20092;-71
2022/07/11 06:51:49;;;;;;;7.80;1.35;;;17.60;99.90;;;;;;5030682;28;20758;-70
2022/07/11 06:54:15;;;;;;;2.10;1.40;;;17.70;99.90;;;;;;5032695;28;20092;-71
2022/07/11 06:56:41;;;;;;;2.53;0.93;;;17.80;99.90;;;;;;5033746;28;20037;-70
2022/07/11 06:59:06;;;;;;;2.55;0.68;;;17.70;99.90;;;;;;5030348;28;20025;-72
2022/07/11 07:01:32;;;;;;;2.35;0.77;;;17.80;99.90;;;;;;5039832;28;20111;-72
2022/07/11 07:03:58;;;;;;;3.47;0.73;;;17.80;99.90;;;;;;5034104;28;20041;-71
2022/07/11 07:06:23;;;;;;;1.35;0.82;;;17.90;99.90;;;;;;5033208;28;20543;-71
2022/07/11 07:08:49;;;;;;;1.73;0.35;;;17.90;99.90;;;;;;5036269;28;20486;-71
2022/07/11 07:11:14;;;;;;;2.42;0.40;;;18.00;99.90;;;;;;5031669;28;20473;-72
2022/07/11 07:13:40;;;;;;;2.55;0.28;;;18.10;99.90;;;;;;5032789;28;20033;-71
2022/07/11 07:16:06;;;;;;;0.80;0.30;;;18.00;99.90;;;;;;5040320;28;20029;-71
2022/07/11 07:18:32;;;;;;;0.57;0.30;;;18.10;99.90;;;;;;5038671;28;20038;-71
2022/07/11 07:20:58;;;;;;;1.55;0.32;;;18.10;99.90;;;;;;5030839;28;20033;-71
2022/07/11 07:23:23;;;;;;;1.13;0.20;;;18.10;99.90;;;;;;5035668;28;20036;-70
2022/07/11 07:25:49;;;;;;;1.05;0.20;;;18.00;99.90;;;;;;5040489;28;20038;-72
2022/07/11 07:28:15;;;;;;;1.75;0.40;;;18.10;99.90;;;;;;5035627;28;20040;-71
2022/07/11 07:30:41;;;;;;;1.30;0.55;;;18.10;99.90;;;;;;5032968;28;20513;-70
2022/07/11 07:33:06;;;;;;;1.60;0.30;;;18.20;99.90;;;;;;5031450;28;20394;-72
2022/07/11 07:35:32;;;;;;;1.45;0.93;;;18.20;99.90;;;;;;5036320;28;20033;-71
2022/07/11 07:37:57;;;;;;;2.65;0.57;;;18.20;99.90;;;;;;5040322;28;20026;-69
2022/07/11 07:40:23;;;;;;;1.35;0.30;;;18.30;99.90;;;;;;5044641;28;20048;-69
2022/07/11 07:42:49;;;;;;;2.97;0.30;;;18.30;99.90;;;;;;5033780;28;20052;-72
2022/07/11 07:45:14;;;;;;;1.08;0.40;;;18.30;99.90;;;;;;5031876;28;20029;-71
2022/07/11 07:47:41;;;;;;;3.25;0.50;;;18.40;99.90;;;;;;5031746;28;20033;-72
2022/07/11 07:50:07;;;;;;;1.95;0.40;;;18.40;99.90;;;;;;5029972;28;20056;-70
2022/07/11 07:52:32;;;;;;;2.72;0.40;;;18.50;99.90;;;;;;5029724;28;20475;-72
2022/07/11 07:54:58;;;;;;;1.48;0.80;;;18.50;99.90;;;;;;5031239;28;20033;-70
2022/07/11 07:57:23;;;;;;;0.70;0.40;;;18.60;99.90;;;;;;5030143;28;20073;-70
2022/07/11 07:59:49;;;;;;;4.22;0.80;;;18.60;99.90;;;;;;5030945;28;20060;-72
2022/07/11 08:02:15;;;;;;;1.15;0.82;;;18.70;99.90;;;;;;5030259;28;20049;-70
2022/07/11 08:04:41;;;;;;;2.05;0.55;;;18.60;99.90;;;;;;5029616;28;20034;-71
2022/07/11 08:07:06;;;;;;;0.80;0.40;;;18.60;99.90;;;;;;5031159;28;20047;-72
2022/07/11 08:09:32;;;;;;;1.00;0.45;;;18.60;99.90;;;;;;5031043;28;20101;-72
2022/07/11 08:11:58;;;;;;;0.98;0.32;;;18.50;99.90;;;;;;5030406;28;20060;-70
2022/07/11 08:14:23;;;;;;;2.70;0.40;;;18.50;99.90;;;;;;5029853;28;20037;-71
2022/07/11 08:16:49;;;;;;;0.90;0.43;;;18.60;99.90;;;;;;5030955;28;20076;-73
2022/07/11 08:19:15;;;;;;;2.20;0.60;;;18.60;99.90;;;;;;5030789;28;20410;-71
2022/07/11 08:21:41;;;;;;;2.10;0.50;;;18.50;99.90;;;;;;5029725;28;20502;-72
2022/07/11 08:24:07;;;;;;;1.02;0.52;;;18.50;99.90;;;;;;5031037;28;20025;-72
2022/07/11 08:26:33;;;;;;;0.70;0.40;;;18.50;99.90;;;;;;5034258;28;20507;-72
2022/07/11 08:29:00;;;;;;;2.42;0.50;;;18.60;99.90;;;;;;5029952;28;20067;-70
2022/07/11 08:31:26;;;;;;;1.80;0.52;;;18.60;99.90;;;;;;5029201;28;20029;-72
2022/07/11 08:33:52;;;;;;;1.27;0.50;;;18.80;99.90;;;;;;5029026;28;20092;-71
2022/07/11 08:36:18;;;;;;;1.17;0.40;;;19.00;99.90;;;;;;5029622;28;20041;-72
2022/07/11 08:38:46;;;;;;;0.98;0.50;;;19.20;99.90;;;;;;5030052;28;20037;-71
2022/07/11 08:41:13;;;;;;;0.90;0.38;;;19.30;99.90;;;;;;5028816;28;20037;-71
2022/07/11 08:43:40;;;;;;;0.73;0.38;;;19.30;99.90;;;;;;5025391;28;20030;-71
2022/07/11 08:46:09;;;;;;;0.60;0.17;;;19.40;99.90;;;;;;5028348;28;20087;-72
2022/07/11 08:48:37;;;;;;;1.77;0.22;;;19.30;99.90;;;;;;5027969;28;20037;-71
2022/07/11 08:51:05;;;;;;;0.20;0.20;;;19.30;99.90;;;;;;5026877;28;20033;-72
2022/07/11 08:53:33;;;;;;;0.25;0.10;;;19.20;99.90;;;;;;5027915;28;20091;-71
2022/07/11 08:55:59;;;;;;;0.50;0.20;;;19.10;99.90;;;;;;5027236;28;20032;-70
2022/07/11 08:58:26;;;;;;;1.15;0.25;;;19.10;99.90;;;;;;5029385;28;20111;-71
2022/07/11 09:00:52;;;;;;;0.98;0.10;;;19.10;99.90;;;;;;5027816;28;20116;-72
2022/07/11 09:03:19;;;;;;;0.35;0.15;;;19.10;99.90;;;;;;5028484;28;20034;-71
2022/07/11 09:05:45;;;;;;;0.28;0.10;;;19.10;99.90;;;;;;5028302;28;20033;-70
2022/07/11 09:08:11;;;;;;;0.28;0.17;;;19.20;99.90;;;;;;5028195;28;20048;-72
2022/07/11 09:10:40;;;;;;;0.20;0.10;;;19.30;99.90;;;;;;5027860;28;20418;-71
2022/07/11 09:13:06;;;;;;;1.83;0.20;;;19.40;99.90;;;;;;5026617;28;20029;-72
2022/07/11 09:15:37;;;;;;;0.50;0.10;;;19.40;99.90;;;;;;5027888;28;20029;-72
2022/07/11 09:18:05;;;;;;;0.95;0.17;;;19.50;99.90;;;;;;5028320;28;20497;-73
2022/07/11 09:26:29;;;;;;;0.52;0.10;;;19.40;99.90;;;;;;5027363;28;20155;-72
2022/07/11 09:29:01;;;;;;;1.58;0.20;;;19.40;99.90;;;;;;5027575;28;20421;-71
2022/07/11 09:31:28;;;;;;;0.85;0.10;;;19.40;99.90;;;;;;5028702;28;20552;-72
2022/07/11 09:34:08;;;;;;;0.50;0.20;;;19.40;99.90;;;;;;5028217;28;20534;-70
2022/07/11 09:36:35;;;;;;;0.15;0.10;;;19.40;99.90;;;;;;5028422;28;20030;-71
2022/07/11 09:39:02;;;;;;;0.25;0.10;;;19.40;99.90;;;;;;5026952;28;20124;-71
2022/07/11 09:41:32;;;;;;;0.25;0.15;;;19.40;99.90;;;;;;5028926;28;20025;-71
2022/07/11 09:44:11;;;;;;;0.15;0.10;;;19.50;99.90;;;;;;5026238;28;20466;-70
2022/07/11 09:46:37;;;;;;;0.30;0.00;;;19.40;99.90;;;;;;5028834;28;20041;-72
2022/07/11 09:49:03;;;;;;;0.63;0.20;;;19.40;99.90;;;;;;5028419;28;20501;-72
2022/07/11 09:51:31;;;;;;;0.65;0.10;;;19.50;99.90;;;;;;5028979;28;20033;-71
2022/07/11 09:53:58;;;;;;;0.35;0.10;;;19.60;99.90;;;;;;5028036;28;20057;-72
2022/07/11 09:56:39;;;;;;;0.52;0.10;;;19.60;99.90;;;;;;5028737;28;20041;-70
2022/07/11 09:59:06;;;;;;;0.50;0.10;;;19.70;99.90;;;;;;5027831;28;20037;-72
2022/07/11 10:01:32;;;;;;;0.20;0.10;;;19.70;99.90;;;;;;5029353;28;20037;-70
2022/07/11 10:03:58;;;;;;;0.57;0.10;;;19.80;99.90;;;;;;5027488;28;20041;-71
2022/07/11 10:06:25;;;;;;;0.10;0.08;;;19.80;99.90;;;;;;5027359;28;20040;-70
2022/07/11 10:08:51;;;;;;;0.73;0.00;;;19.80;99.90;;;;;;5026656;28;20040;-71
2022/07/11 10:11:17;;;;;;;0.10;0.00;;;19.90;99.90;;;;;;5028373;28;20029;-71
2022/07/11 10:13:43;;;;;;;0.68;0.30;;;19.90;99.90;;;;;;5028289;28;20541;-71
2022/07/11 10:16:35;;;;;;;0.65;0.10;;;20.00;99.90;;;;;;5029104;28;20037;-73
2022/07/11 10:19:11;;;;;;;0.20;0.10;;;20.00;99.90;;;;;;5029495;28;20041;-71
2022/07/11 10:22:14;;;;;;;0.95;0.20;;;20.00;99.90;;;;;;5032258;28;20092;-72
2022/07/11 10:24:45;;;;;;;1.00;0.08;;;20.10;99.90;;;;;;5030170;28;20037;-72
2022/07/11 10:27:21;;;;;;;0.57;0.10;;;20.10;99.90;;;;;;5032138;28;20362;-72
2022/07/11 10:29:51;;;;;;;0.70;0.00;;;20.10;99.90;;;;;;5028729;28;20041;-71
2022/07/11 10:32:19;;;;;;;0.05;0.00;;;20.10;99.90;;;;;;5035449;28;20037;-70
2022/07/11 10:34:46;;;;;;;0.25;0.10;;;20.30;99.90;;;;;;5028129;28;20045;-72
2022/07/11 10:37:13;;;;;;;0.10;0.00;;;20.30;99.90;;;;;;5031112;28;20034;-72
2022/07/11 10:39:46;;;;;;;0.10;0.00;;;20.40;99.90;;;;;;5032393;28;20583;-72
2022/07/11 10:42:19;;;;;;;1.90;0.22;;;20.50;99.90;;;;;;5029279;28;20030;-72
2022/07/11 10:44:56;;;;;;;0.00;0.00;;;20.70;99.90;;;;;;5027984;28;20052;-70
2022/07/11 10:47:34;;;;;;;0.00;0.00;;;20.80;99.90;;;;;;5028380;28;20796;-71
2022/07/11 10:50:07;;;;;;;0.00;0.00;;;20.90;99.90;;;;;;5030494;28;20086;-71
2022/07/11 10:52:36;;;;;;;0.08;0.00;;;20.90;99.90;;;;;;5030193;28;20043;-71
2022/07/11 10:55:31;;;;;;;0.30;0.00;;;21.10;99.90;;;;;;5030972;28;20532;-70
2022/07/11 10:58:03;;;;;;;0.10;0.00;;;21.10;99.90;;;;;;5035562;28;20038;-72
2022/07/11 11:00:30;;;;;;;0.00;0.00;;;21.30;99.90;;;;;;5031747;28;20183;-72
2022/07/11 11:03:06;;;;;;;0.50;0.00;;;21.30;99.90;;;;;;5029808;28;20401;-72
2022/07/11 11:05:43;;;;;;;0.88;0.20;;;21.30;99.90;;;;;;5029642;28;20040;-71
2022/07/11 11:08:30;;;;;;;0.95;0.15;;;21.40;99.90;;;;;;5030307;28;20433;-72
2022/07/11 11:10:56;;;;;;;3.00;0.05;;;21.50;99.90;;;;;;5027898;28;20044;-72
2022/07/11 11:13:21;;;;;;;2.63;0.00;;;21.50;99.90;;;;;;5029070;28;20033;-72
2022/07/11 11:15:54;;;;;;;0.00;0.00;;;21.60;99.90;;;;;;5031384;28;20152;-71
2022/07/11 11:18:25;;;;;;;0.25;0.00;;;21.60;99.90;;;;;;5030412;28;20125;-70
2022/07/11 11:21:04;;;;;;;0.08;0.08;;;21.60;99.90;;;;;;5029329;28;20518;-70
2022/07/11 11:23:38;;;;;;;0.35;0.10;;;21.70;99.90;;;;;;5029752;28;20033;-70
2022/07/11 11:26:14;;;;;;;0.43;0.10;;;21.80;99.90;;;;;;5030451;28;20041;-71
2022/07/11 11:29:04;;;;;;;0.68;0.10;;;21.80;99.90;;;;;;5025150;28;20060;-72
2022/07/11 11:31:31;;;;;;;1.05;0.10;;;21.80;99.90;;;;;;5028734;28;20053;-71
2022/07/11 11:33:58;;;;;;;6.50;0.25;;;21.90;99.90;;;;;;5027424;28;20516;-71
2022/07/11 11:36:25;;;;;;;0.00;0.00;;;21.90;99.90;;;;;;5029318;28;20116;-71
2022/07/11 11:38:52;;;;;;;0.10;0.10;;;21.80;99.90;;;;;;5028315;28;20126;-70
2022/07/11 11:41:27;;;;;;;1.92;0.20;;;21.90;99.90;;;;;;5028376;28;20037;-71
2022/07/11 11:43:55;;;;;;;0.05;0.00;;;21.90;99.90;;;;;;5029682;28;20037;-71
2022/07/11 11:46:29;;;;;;;0.10;0.10;;;22.00;99.90;;;;;;5030380;28;20026;-70
2022/07/11 11:48:57;;;;;;;2.05;0.20;;;22.20;99.90;;;;;;5029845;28;20128;-72
2022/07/11 11:51:26;;;;;;;0.75;0.03;;;22.30;99.90;;;;;;5026846;28;20042;-71
2022/07/11 11:53:54;;;;;;;2.67;0.43;;;22.40;99.90;;;;;;5029388;28;20126;-71
2022/07/11 11:56:28;;;;;;;0.17;0.17;;;22.30;99.90;;;;;;5029699;28;20026;-69
2022/07/11 11:58:57;;;;;;;0.13;0.10;;;22.30;99.90;;;;;;5029584;28;20556;-68
2022/07/11 12:01:31;;;;;;;0.80;0.10;;;22.30;99.90;;;;;;5030345;28;20057;-68
2022/07/11 12:03:58;;;;;;;0.00;0.00;;;22.50;99.90;;;;;;5027467;28;20116;-70
2022/07/11 12:06:34;;;;;;;0.75;0.20;;;22.40;99.90;;;;;;5030421;28;20037;-69
2022/07/11 12:09:06;;;;;;;0.40;0.08;;;22.50;99.90;;;;;;5032348;28;20037;-69
2022/07/11 12:11:33;;;;;;;0.32;0.10;;;22.40;99.90;;;;;;5030738;28;20033;-69
2022/07/11 12:14:03;;;;;;;0.43;0.10;;;22.60;99.90;;;;;;5027642;28;20453;-68
2022/07/11 12:16:46;;;;;;;1.25;0.00;;;22.80;99.90;;;;;;5030583;28;20485;-69
2022/07/11 12:19:16;;;;;;;0.57;0.20;;;22.80;99.90;;;;;;5024727;28;20120;-71
2022/07/11 12:21:44;;;;;;;0.38;0.10;;;22.80;99.90;;;;;;5026875;28;20124;-71
2022/07/11 12:24:12;;;;;;;0.38;0.00;;;22.70;99.90;;;;;;5034556;28;20420;-71
2022/07/11 12:26:40;;;;;;;0.13;0.00;;;22.80;99.90;;;;;;5034496;28;20040;-70
2022/07/11 12:29:16;;;;;;;0.10;0.00;;;22.80;99.90;;;;;;5032104;28;20032;-70
2022/07/11 12:31:41;;;;;;;1.02;0.15;;;22.80;99.90;;;;;;5037141;28;20042;-70
2022/07/11 12:34:07;;;;;;;2.13;0.32;;;22.80;99.90;;;;;;5029751;28;20578;-71
2022/07/11 12:36:33;;;;;;;1.50;0.05;;;22.80;99.90;;;;;;5030514;28;20040;-69
2022/07/11 12:38:58;;;;;;;0.30;0.00;;;22.80;99.90;;;;;;5027626;28;20489;-70
2022/07/11 12:41:24;;;;;;;0.30;0.00;;;22.90;99.90;;;;;;5028460;28;20113;-69
2022/07/11 12:46:37;;;;;;;0.30;0.03;;;23.10;99.90;;;;;;5028637;28;20123;-70
2022/07/11 12:49:04;;;;;;;0.10;0.00;;;23.20;99.90;;;;;;5028724;28;20109;-69
2022/07/11 12:51:35;;;;;;;0.57;0.10;;;23.30;99.90;;;;;;5029646;28;20037;-71
2022/07/11 12:54:02;;;;;;;0.50;0.00;;;23.30;99.90;;;;;;5028653;28;20034;-71
2022/07/11 12:56:28;;;;;;;0.10;0.00;;;23.30;99.90;;;;;;5029181;28;20113;-69
2022/07/11 12:58:54;;;;;;;0.10;0.08;;;23.20;99.90;;;;;;5028803;28;20117;-70
2022/07/11 13:01:19;;;;;;;0.05;0.00;;;23.10;99.90;;;;;;5028799;28;20026;-70